ARG1488 SAVC-SAWH
Flight info
| Callsign | ARG1488 |
|---|---|
| Flight time | 0h 37m |
| Altitude | 37000 |
| Route | BODUN1G BODUN DCT SJU UW45 GRA T108 DABLI DABLI1Q |
| Aircraft | B744/H-SDE3FGHIM1M2RWXY/LB1 |
Departure
| Time | 2026-04-26 05:13 |
|---|---|
| Airport | General Enrique Mosconi International Airport (SAVC) |
Arrival
| Time | 2026-04-26 05:50 |
|---|---|
| Airport | Ushuaia - Malvinas Argentinas International Airport (SAWH) |
| Time | Latitude | Longitude | Altitude | Speed | Heading |
|---|---|---|---|---|---|
| 2026-04-26 04:32 | -45.78959 | -67.47076 | 179 ft | 0 kts | 235° |
| 2026-04-26 05:03 | -45.78947 | -67.47061 | 178 ft | 2 kts | 195° |
| 2026-04-26 05:04 | -45.78932 | -67.47060 | 178 ft | 2 kts | 192° |
| 2026-04-26 05:04 | -45.78919 | -67.47048 | 178 ft | 2 kts | 236° |
| 2026-04-26 05:04 | -45.78914 | -67.47031 | 177 ft | 1 kts | 272° |
| 2026-04-26 05:04 | -45.78914 | -67.47021 | 177 ft | 0 kts | 269° |
| 2026-04-26 05:09 | -45.78914 | -67.47032 | 178 ft | 2 kts | 269° |
| 2026-04-26 05:09 | -45.78915 | -67.47066 | 179 ft | 4 kts | 268° |
| 2026-04-26 05:09 | -45.78916 | -67.47123 | 181 ft | 5 kts | 268° |
| 2026-04-26 05:09 | -45.78897 | -67.47192 | 183 ft | 11 kts | 317° |
| 2026-04-26 05:10 | -45.78819 | -67.47203 | 182 ft | 12 kts | 45° |
| 2026-04-26 05:10 | -45.78792 | -67.47072 | 180 ft | 15 kts | 79° |
| 2026-04-26 05:10 | -45.78643 | -67.45927 | 143 ft | 20 kts | 79° |
| 2026-04-26 05:10 | -45.78521 | -67.45023 | 121 ft | 22 kts | 77° |
| 2026-04-26 05:11 | -45.78506 | -67.44925 | 119 ft | 5 kts | 69° |
| 2026-04-26 05:11 | -45.78482 | -67.44874 | 118 ft | 6 kts | 43° |
| 2026-04-26 05:11 | -45.78431 | -67.44835 | 117 ft | 10 kts | 14° |
| 2026-04-26 05:11 | -45.78356 | -67.44835 | 115 ft | 11 kts | 349° |
| 2026-04-26 05:12 | -45.78298 | -67.44868 | 115 ft | 5 kts | 285° |
| 2026-04-26 05:12 | -45.78303 | -67.44910 | 116 ft | 2 kts | 253° |
| 2026-04-26 05:12 | -45.78319 | -67.45002 | 117 ft | 25 kts | 257° |
| 2026-04-26 05:12 | -45.78399 | -67.45609 | 134 ft | 102 kts | 258° |
| 2026-04-26 05:13 | -45.78578 | -67.46962 | 190 ft | 168 kts | 255° |
| 2026-04-26 05:13 | -45.78788 | -67.48643 | 838 ft | 178 kts | 252° |
| 2026-04-26 05:13 | -45.79151 | -67.50441 | 1605 ft | 202 kts | 239° |
| 2026-04-26 05:13 | -45.79755 | -67.52208 | 2621 ft | 199 kts | 235° |
| 2026-04-26 05:14 | -45.80455 | -67.53998 | 3141 ft | 219 kts | 232° |
| 2026-04-26 05:14 | -45.81218 | -67.55936 | 4032 ft | 226 kts | 234° |
| 2026-04-26 05:14 | -45.81927 | -67.57920 | 5091 ft | 224 kts | 233° |
| 2026-04-26 05:14 | -45.82901 | -67.59577 | 5881 ft | 222 kts | 212° |
| 2026-04-26 05:15 | -45.84106 | -67.60886 | 6775 ft | 224 kts | 212° |
| 2026-04-26 05:15 | -45.85320 | -67.62257 | 7693 ft | 227 kts | 212° |
| 2026-04-26 05:15 | -45.86599 | -67.63626 | 8542 ft | 232 kts | 211° |
| 2026-04-26 05:15 | -45.87868 | -67.65017 | 9409 ft | 235 kts | 212° |
| 2026-04-26 05:16 | -45.89183 | -67.66419 | 10197 ft | 241 kts | 212° |
| 2026-04-26 05:16 | -45.90546 | -67.67902 | 10952 ft | 247 kts | 212° |
| 2026-04-26 05:16 | -45.91938 | -67.69390 | 11626 ft | 256 kts | 212° |
| 2026-04-26 05:16 | -45.93413 | -67.70963 | 12196 ft | 269 kts | 213° |
| 2026-04-26 05:17 | -45.94953 | -67.72608 | 12627 ft | 286 kts | 212° |
| 2026-04-26 05:17 | -45.96615 | -67.74359 | 13050 ft | 302 kts | 213° |
| 2026-04-26 05:17 | -45.98318 | -67.76174 | 13906 ft | 314 kts | 213° |
| 2026-04-26 05:17 | -46.00088 | -67.77981 | 15050 ft | 317 kts | 207° |
| 2026-04-26 05:18 | -46.02066 | -67.79283 | 16276 ft | 314 kts | 199° |
| 2026-04-26 05:18 | -46.04075 | -67.80461 | 17423 ft | 316 kts | 200° |
| 2026-04-26 05:18 | -46.06096 | -67.81691 | 18492 ft | 318 kts | 200° |
| 2026-04-26 05:18 | -46.08120 | -67.82898 | 19494 ft | 320 kts | 200° |
| 2026-04-26 05:19 | -46.10159 | -67.84142 | 20500 ft | 319 kts | 200° |
| 2026-04-26 05:19 | -46.12215 | -67.85376 | 21447 ft | 319 kts | 198° |
| 2026-04-26 05:19 | -46.14256 | -67.86217 | 22182 ft | 319 kts | 186° |
| 2026-04-26 05:19 | -46.16485 | -67.86133 | 22908 ft | 323 kts | 169° |
| 2026-04-26 05:20 | -46.18622 | -67.85224 | 23846 ft | 322 kts | 164° |
| 2026-04-26 05:20 | -46.20766 | -67.84238 | 24613 ft | 324 kts | 166° |
| 2026-04-26 05:20 | -46.22928 | -67.83305 | 25282 ft | 328 kts | 165° |
| 2026-04-26 05:20 | -46.25106 | -67.82364 | 26020 ft | 329 kts | 166° |
| 2026-04-26 05:21 | -46.26577 | -67.81721 | 26510 ft | 330 kts | 166° |
| 2026-04-26 05:21 | -46.29539 | -67.80439 | 27482 ft | 330 kts | 165° |
| 2026-04-26 05:21 | -46.31744 | -67.79491 | 28289 ft | 327 kts | 167° |
| 2026-04-26 05:21 | -46.33945 | -67.78514 | 28975 ft | 327 kts | 165° |
| 2026-04-26 05:22 | -46.36124 | -67.77563 | 29595 ft | 327 kts | 167° |
| 2026-04-26 05:22 | -46.37573 | -67.76948 | 29930 ft | 330 kts | 166° |
| 2026-04-26 05:22 | -46.41327 | -67.75323 | 30727 ft | 334 kts | 165° |
| 2026-04-26 05:22 | -46.46363 | -67.73410 | 31387 ft | 340 kts | 168° |
| 2026-04-26 05:23 | -46.61714 | -67.66730 | 32276 ft | 352 kts | 164° |
| 2026-04-26 05:23 | -46.67452 | -67.63972 | 32428 ft | 363 kts | 171° |
| 2026-04-26 05:23 | -46.70047 | -67.63776 | 32558 ft | 372 kts | 184° |
| 2026-04-26 05:23 | -46.72600 | -67.64220 | 32909 ft | 374 kts | 185° |
| 2026-04-26 05:24 | -46.75220 | -67.64551 | 33193 ft | 378 kts | 183° |
| 2026-04-26 05:24 | -46.77829 | -67.64806 | 33517 ft | 381 kts | 183° |
| 2026-04-26 05:24 | -46.80512 | -67.65051 | 33768 ft | 385 kts | 182° |
| 2026-04-26 05:24 | -46.83179 | -67.65261 | 34079 ft | 387 kts | 182° |
| 2026-04-26 05:25 | -46.85897 | -67.65456 | 34406 ft | 390 kts | 182° |
| 2026-04-26 05:25 | -47.10981 | -67.67142 | 36524 ft | 395 kts | 182° |
| 2026-04-26 05:25 | -47.13775 | -67.67255 | 36448 ft | 406 kts | 182° |
| 2026-04-26 05:25 | -47.16623 | -67.67452 | 36525 ft | 412 kts | 182° |
| 2026-04-26 05:26 | -47.25131 | -67.67932 | 37094 ft | 416 kts | 182° |
| 2026-04-26 05:26 | -47.53865 | -67.69625 | 37468 ft | 423 kts | 182° |
| 2026-04-26 05:26 | -47.73619 | -67.70858 | 37083 ft | 426 kts | 184° |
| 2026-04-26 05:26 | -48.02954 | -67.73092 | 37083 ft | 423 kts | 181° |
| 2026-04-26 05:27 | -48.95796 | -67.80878 | 36937 ft | 411 kts | 180° |
| 2026-04-26 05:27 | -49.07348 | -67.80445 | 37006 ft | 405 kts | 178° |
| 2026-04-26 05:28 | -49.51258 | -67.81696 | 37204 ft | 411 kts | 182° |
| 2026-04-26 05:28 | -49.65761 | -67.82928 | 36947 ft | 409 kts | 173° |
| 2026-04-26 05:28 | -49.68527 | -67.81860 | 36986 ft | 407 kts | 162° |
| 2026-04-26 05:28 | -49.71140 | -67.80220 | 37039 ft | 407 kts | 161° |
| 2026-04-26 05:29 | -49.83656 | -67.76305 | 37232 ft | 404 kts | 173° |
| 2026-04-26 05:29 | -50.28788 | -67.74631 | 36975 ft | 404 kts | 185° |
| 2026-04-26 05:29 | -51.17384 | -67.94338 | 37276 ft | 402 kts | 177° |
| 2026-04-26 05:30 | -51.61729 | -67.82301 | 36714 ft | 409 kts | 165° |
| 2026-04-26 05:30 | -52.04433 | -67.57563 | 37578 ft | 407 kts | 166° |
| 2026-04-26 05:30 | -52.48896 | -67.45018 | 37052 ft | 404 kts | 179° |
| 2026-04-26 05:30 | -52.93623 | -67.51270 | 36888 ft | 410 kts | 190° |
| 2026-04-26 05:31 | -53.04115 | -67.55906 | 36612 ft | 412 kts | 203° |
| 2026-04-26 05:31 | -53.06484 | -67.58585 | 36764 ft | 420 kts | 215° |
| 2026-04-26 05:31 | -53.08493 | -67.62155 | 36935 ft | 426 kts | 221° |
| 2026-04-26 05:31 | -53.10542 | -67.65601 | 37009 ft | 421 kts | 213° |
| 2026-04-26 05:32 | -53.23356 | -67.76572 | 35787 ft | 409 kts | 198° |
| 2026-04-26 05:32 | -53.45253 | -67.86090 | 32946 ft | 385 kts | 185° |
| 2026-04-26 05:32 | -53.57318 | -67.87247 | 31265 ft | 365 kts | 172° |
| 2026-04-26 05:33 | -53.59795 | -67.85983 | 30771 ft | 375 kts | 160° |
| 2026-04-26 05:33 | -53.62020 | -67.83627 | 30272 ft | 385 kts | 150° |
| 2026-04-26 05:33 | -53.64280 | -67.81310 | 29741 ft | 376 kts | 161° |
| 2026-04-26 05:33 | -53.66729 | -67.79942 | 29249 ft | 372 kts | 167° |
| 2026-04-26 05:34 | -53.69207 | -67.78737 | 28763 ft | 370 kts | 166° |
| 2026-04-26 05:34 | -53.71627 | -67.77488 | 28266 ft | 367 kts | 166° |
| 2026-04-26 05:34 | -53.74079 | -67.76268 | 27754 ft | 364 kts | 166° |
| 2026-04-26 05:34 | -53.76500 | -67.75060 | 27246 ft | 361 kts | 166° |
| 2026-04-26 05:35 | -53.78936 | -67.74033 | 26707 ft | 358 kts | 173° |
| 2026-04-26 05:35 | -53.81385 | -67.73817 | 26215 ft | 356 kts | 179° |
| 2026-04-26 05:35 | -53.83860 | -67.73727 | 25711 ft | 354 kts | 177° |
| 2026-04-26 05:35 | -53.86314 | -67.73518 | 25230 ft | 352 kts | 177° |
| 2026-04-26 05:36 | -53.88733 | -67.73316 | 24785 ft | 350 kts | 176° |
| 2026-04-26 05:36 | -54.16227 | -67.70959 | 20089 ft | 347 kts | 177° |
| 2026-04-26 05:36 | -54.28474 | -67.69670 | 17965 ft | 333 kts | 174° |
| 2026-04-26 05:36 | -54.30712 | -67.69246 | 17488 ft | 320 kts | 175° |
| 2026-04-26 05:37 | -54.32999 | -67.68922 | 17036 ft | 329 kts | 175° |
| 2026-04-26 05:37 | -54.35294 | -67.68596 | 16604 ft | 333 kts | 176° |
| 2026-04-26 05:37 | -54.47929 | -67.67082 | 14404 ft | 333 kts | 177° |
| 2026-04-26 05:37 | -54.50233 | -67.66736 | 14068 ft | 329 kts | 175° |
| 2026-04-26 05:38 | -54.52503 | -67.66460 | 13738 ft | 327 kts | 178° |
| 2026-04-26 05:38 | -54.54764 | -67.66222 | 13326 ft | 323 kts | 177° |
| 2026-04-26 05:38 | -54.56963 | -67.65974 | 12640 ft | 324 kts | 177° |
| 2026-04-26 05:38 | -54.59230 | -67.65730 | 12276 ft | 317 kts | 178° |
| 2026-04-26 05:39 | -54.61309 | -67.65499 | 11387 ft | 287 kts | 178° |
| 2026-04-26 05:39 | -54.63232 | -67.65281 | 10774 ft | 271 kts | 178° |
| 2026-04-26 05:39 | -54.65065 | -67.65099 | 10414 ft | 259 kts | 178° |
| 2026-04-26 05:39 | -54.66818 | -67.64919 | 10001 ft | 250 kts | 178° |
| 2026-04-26 05:40 | -54.68519 | -67.64713 | 9409 ft | 249 kts | 178° |
| 2026-04-26 05:40 | -54.70248 | -67.64498 | 8744 ft | 250 kts | 179° |
| 2026-04-26 05:40 | -54.71969 | -67.64307 | 8259 ft | 243 kts | 180° |
| 2026-04-26 05:40 | -54.73598 | -67.64153 | 8014 ft | 230 kts | 180° |
| 2026-04-26 05:41 | -54.75236 | -67.63959 | 7646 ft | 241 kts | 180° |
| 2026-04-26 05:41 | -54.76935 | -67.63762 | 7292 ft | 248 kts | 180° |
| 2026-04-26 05:41 | -54.78667 | -67.63626 | 7055 ft | 249 kts | 187° |
| 2026-04-26 05:41 | -54.80331 | -67.64331 | 6738 ft | 248 kts | 208° |
| 2026-04-26 05:42 | -54.81674 | -67.66124 | 6580 ft | 243 kts | 230° |
| 2026-04-26 05:42 | -54.82460 | -67.68628 | 6481 ft | 239 kts | 252° |
| 2026-04-26 05:42 | -54.82586 | -67.71473 | 6418 ft | 237 kts | 275° |
| 2026-04-26 05:42 | -54.82124 | -67.74218 | 6392 ft | 234 kts | 287° |
| 2026-04-26 05:43 | -54.81683 | -67.76851 | 6351 ft | 221 kts | 269° |
| 2026-04-26 05:43 | -54.81836 | -67.79436 | 6208 ft | 218 kts | 254° |
| 2026-04-26 05:43 | -54.82153 | -67.81919 | 6041 ft | 208 kts | 257° |
| 2026-04-26 05:43 | -54.82350 | -67.84379 | 5638 ft | 206 kts | 260° |
| 2026-04-26 05:44 | -54.82508 | -67.86801 | 5480 ft | 195 kts | 261° |
| 2026-04-26 05:44 | -54.82633 | -67.89040 | 5346 ft | 181 kts | 262° |
| 2026-04-26 05:44 | -54.82739 | -67.91199 | 5065 ft | 177 kts | 263° |
| 2026-04-26 05:44 | -54.82828 | -67.93234 | 4946 ft | 161 kts | 262° |
| 2026-04-26 05:45 | -54.82920 | -67.95073 | 4830 ft | 152 kts | 262° |
| 2026-04-26 05:45 | -54.83004 | -67.96868 | 4475 ft | 147 kts | 262° |
| 2026-04-26 05:45 | -54.83084 | -67.98584 | 4109 ft | 139 kts | 263° |
| 2026-04-26 05:45 | -54.83143 | -68.00216 | 3828 ft | 135 kts | 263° |
| 2026-04-26 05:46 | -54.83215 | -68.01838 | 3645 ft | 138 kts | 263° |
| 2026-04-26 05:46 | -54.83289 | -68.03503 | 3428 ft | 137 kts | 263° |
| 2026-04-26 05:46 | -54.83367 | -68.05142 | 3201 ft | 137 kts | 263° |
| 2026-04-26 05:46 | -54.83434 | -68.06780 | 2982 ft | 137 kts | 264° |
| 2026-04-26 05:47 | -54.83498 | -68.08446 | 2743 ft | 139 kts | 264° |
| 2026-04-26 05:47 | -54.83564 | -68.10102 | 2524 ft | 139 kts | 264° |
| 2026-04-26 05:47 | -54.83638 | -68.11777 | 2303 ft | 140 kts | 265° |
| 2026-04-26 05:47 | -54.83705 | -68.13469 | 2071 ft | 140 kts | 265° |
| 2026-04-26 05:48 | -54.83785 | -68.15166 | 1835 ft | 142 kts | 266° |
| 2026-04-26 05:48 | -54.83838 | -68.16852 | 1606 ft | 140 kts | 267° |
| 2026-04-26 05:48 | -54.83897 | -68.18536 | 1383 ft | 139 kts | 265° |
| 2026-04-26 05:48 | -54.83971 | -68.20209 | 1142 ft | 138 kts | 265° |
| 2026-04-26 05:49 | -54.84032 | -68.21847 | 918 ft | 136 kts | 265° |
| 2026-04-26 05:49 | -54.84163 | -68.25077 | 468 ft | 132 kts | 264° |
| 2026-04-26 05:49 | -54.84209 | -68.26672 | 228 ft | 132 kts | 264° |
| 2026-04-26 05:50 | -54.84283 | -68.28235 | 51 ft | 124 kts | 266° |
| 2026-04-26 05:50 | -54.84325 | -68.29368 | 64 ft | 54 kts | 265° |
| 2026-04-26 05:50 | -54.84345 | -68.29810 | 71 ft | 30 kts | 264° |
| 2026-04-26 05:50 | -54.84359 | -68.30147 | 75 ft | 25 kts | 265° |
| 2026-04-26 05:51 | -54.84371 | -68.30428 | 76 ft | 21 kts | 269° |
| 2026-04-26 05:51 | -54.84376 | -68.30670 | 76 ft | 18 kts | 266° |
| 2026-04-26 05:51 | -54.84385 | -68.30886 | 73 ft | 16 kts | 275° |
| 2026-04-26 05:51 | -54.84306 | -68.30965 | 72 ft | 13 kts | 356° |
| 2026-04-26 05:52 | -54.84222 | -68.30972 | 73 ft | 10 kts | 357° |
| 2026-04-26 05:52 | -54.84160 | -68.30978 | 74 ft | 7 kts | 356° |
| 2026-04-26 05:52 | -54.84117 | -68.30984 | 74 ft | 4 kts | 344° |
| 2026-04-26 05:52 | -54.84095 | -68.31016 | 74 ft | 4 kts | 291° |
| 2026-04-26 05:53 | -54.84088 | -68.31102 | 72 ft | 6 kts | 293° |
| 2026-04-26 05:53 | -54.84058 | -68.31148 | 72 ft | 5 kts | 332° |
| 2026-04-26 05:53 | -54.84034 | -68.31167 | 71 ft | 2 kts | 336° |
| 2026-04-26 05:53 | -54.84026 | -68.31173 | 71 ft | 0 kts | 336° |